CheckWX is a tool to help pilots better visualize weather data.  It is not intended as a substitute for an official pre-flight weather briefing.

13:39:21 UTC

KEWN TAF
Coastal Carolina Regional Airport
New Bern, North Carolina, USA
KEWN 201120Z 2012/2112 22007KT P6SM SKC FM201600 19011G19KT P6SM FEW050 FM210500 21007KT P6SM SCT070

May-20@
12:00 UTC

May-20 @ 12:00 UTC

May-20@
16:00 UTC

May-20 @ 16:00 UTC

KEWN 201120Z 2012/2112 22007KT P6SM SKC
Wind
  • 220° at 7 KTS
Cloud Levels
  • Clear skies

May-20@
16:00 UTC

May-20 @ 16:00 UTC

May-21@
05:00 UTC

May-21 @ 05:00 UTC

FM201600 19011G19KT P6SM FEW050

From

From Standard forecast or significant change

Wind
  • 190° at 11 KTS
  • {Gusting to 19 KTS
Cloud Levels
  • Few at 5,000' AGL

May-21@
05:00 UTC

May-21 @ 05:00 UTC

May-21@
12:00 UTC

May-21 @ 12:00 UTC

FM210500 21007KT P6SM SCT070

From

From Standard forecast or significant change

Wind
  • 210° at 7 KTS
Cloud Levels
  • Scattered at 7,000' AGL